createdAt,value
2018-03-04T00:00:59.756Z,85.30
2018-03-04T00:01:59.897Z,85.80
2018-03-04T00:03:00.049Z,83.10
2018-03-04T00:04:00.184Z,85.30
2018-03-04T00:05:00.341Z,80.90
2018-03-04T00:06:00.799Z,82.00
2018-03-04T00:07:00.635Z,85.20
2018-03-04T00:08:00.767Z,85.50
2018-03-04T00:09:00.973Z,88.60
2018-03-04T00:10:01.041Z,86.50
2018-03-04T00:11:01.184Z,84.50
2018-03-04T00:12:01.336Z,80.70
2018-03-04T00:13:01.495Z,82.70
2018-03-04T00:14:01.631Z,86.20
2018-03-04T00:15:01.783Z,89.90
2018-03-04T00:16:01.934Z,83.10
2018-03-04T00:17:02.073Z,84.40
2018-03-04T00:18:02.217Z,82.30
2018-03-04T00:19:02.367Z,79.70
2018-03-04T00:20:02.529Z,84.80
2018-03-04T00:21:02.668Z,87.60
2018-03-04T00:22:02.804Z,85.60
2018-03-04T00:23:02.951Z,82.00
2018-03-04T00:24:03.102Z,85.90
2018-03-04T00:25:03.245Z,87.60
2018-03-04T00:26:03.390Z,82.10
2018-03-04T00:27:03.540Z,84.70
2018-03-04T00:28:03.673Z,82.60
2018-03-04T00:29:03.826Z,86.50
2018-03-04T00:30:03.964Z,82.80
2018-03-04T00:31:04.109Z,84.20
2018-03-04T00:32:04.260Z,87.80
2018-03-04T00:34:04.547Z,82.80
2018-03-04T00:35:04.689Z,80.80
2018-03-04T00:36:04.834Z,89.30
2018-03-04T00:37:04.982Z,85.00
2018-03-04T00:38:05.133Z,84.50
2018-03-04T00:39:05.281Z,84.90
2018-03-04T00:40:05.418Z,87.40
2018-03-04T00:41:05.562Z,86.70
2018-03-04T00:42:05.708Z,85.60
2018-03-04T00:43:05.855Z,85.80
2018-03-04T00:44:06.003Z,82.60
2018-03-04T00:45:06.148Z,85.60
2018-03-04T00:46:06.302Z,78.90
2018-03-04T00:47:06.442Z,81.80
2018-03-04T00:48:06.591Z,83.70
2018-03-04T00:49:06.737Z,86.10
2018-03-04T00:50:06.880Z,85.00
2018-03-04T00:51:07.047Z,83.30
2018-03-04T00:52:07.169Z,87.00
2018-03-04T00:53:07.317Z,84.40
2018-03-04T00:54:07.457Z,80.50
2018-03-04T00:55:07.602Z,83.30
2018-03-04T00:56:07.749Z,81.00
2018-03-04T00:57:07.898Z,83.80
2018-03-04T00:58:08.044Z,86.20
2018-03-04T00:59:08.191Z,87.10
2018-03-04T01:00:08.334Z,88.70
2018-03-04T01:01:08.483Z,84.40
2018-03-04T01:02:08.633Z,85.70
2018-03-04T01:03:08.775Z,84.50
2018-03-04T01:04:08.921Z,84.30
2018-03-04T01:05:09.068Z,79.90
2018-03-04T01:06:09.213Z,84.50
2018-03-04T01:07:09.358Z,81.50
2018-03-04T01:08:09.502Z,84.20
2018-03-04T01:09:09.647Z,83.10
2018-03-04T01:10:09.796Z,85.00
2018-03-04T01:11:09.942Z,82.70
2018-03-04T01:12:10.085Z,83.10
2018-03-04T01:13:10.230Z,86.90
2018-03-04T01:14:10.383Z,81.70
2018-03-04T01:15:10.531Z,86.60
2018-03-04T01:16:10.678Z,86.00
2018-03-04T01:17:10.823Z,83.90
2018-03-04T01:18:10.973Z,85.20
2018-03-04T01:19:11.125Z,86.40
2018-03-04T01:20:11.266Z,85.60
2018-03-04T01:21:11.411Z,85.40
2018-03-04T01:22:11.555Z,85.10
2018-03-04T01:23:11.709Z,82.70
2018-03-04T01:24:11.854Z,81.60
2018-03-04T01:25:11.997Z,84.70
2018-03-04T01:26:12.144Z,84.90
2018-03-04T01:27:12.302Z,84.90
2018-03-04T01:28:12.445Z,84.50
2018-03-04T01:29:12.602Z,85.50
2018-03-04T01:30:12.746Z,83.40
2018-03-04T01:31:12.888Z,86.20
2018-03-04T01:32:13.038Z,86.70
2018-03-04T01:33:13.178Z,84.00
2018-03-04T01:34:13.327Z,83.50
2018-03-04T01:35:13.477Z,79.50
2018-03-04T01:36:13.630Z,85.40
2018-03-04T01:37:13.764Z,80.50
2018-03-04T01:38:13.913Z,82.90
2018-03-04T01:39:14.058Z,79.20
2018-03-04T01:40:14.464Z,86.30
2018-03-04T01:41:14.345Z,87.00
2018-03-04T01:42:14.488Z,80.20
2018-03-04T01:43:14.891Z,83.10
2018-03-04T01:44:14.797Z,84.40
2018-03-04T01:45:14.936Z,83.60
2018-03-04T01:46:15.086Z,85.00
2018-03-04T01:47:15.232Z,82.00
2018-03-04T01:48:15.376Z,84.10
2018-03-04T01:49:15.525Z,83.30
2018-03-04T01:50:15.675Z,84.40
2018-03-04T01:51:15.822Z,84.00
2018-03-04T01:52:16.020Z,84.60
2018-03-04T01:53:16.113Z,81.10
2018-03-04T01:54:16.258Z,83.00
2018-03-04T01:55:16.508Z,85.50
2018-03-04T01:56:16.553Z,85.10
2018-03-04T01:57:16.700Z,80.30
2018-03-04T01:59:16.993Z,80.00
2018-03-04T02:00:17.134Z,84.50
2018-03-04T02:01:17.280Z,82.40
2018-03-04T02:02:17.428Z,85.20
2018-03-04T02:03:17.572Z,84.20
2018-03-04T02:04:17.721Z,82.90
2018-03-04T02:05:17.869Z,83.10
2018-03-04T02:06:18.017Z,85.00
2018-03-04T02:07:18.174Z,82.00
2018-03-04T02:08:18.321Z,84.00
2018-03-04T02:09:18.472Z,81.30
2018-03-04T02:10:18.622Z,87.70
2018-03-04T02:11:18.761Z,88.40
2018-03-04T02:12:18.910Z,85.60
2018-03-04T02:13:19.055Z,83.10
2018-03-04T02:14:19.205Z,85.80
2018-03-04T02:15:19.354Z,86.80
2018-03-04T02:16:19.509Z,86.00
2018-03-04T02:17:19.643Z,86.80
2018-03-04T02:18:19.791Z,89.10
2018-03-04T02:19:19.940Z,87.70
2018-03-04T02:20:20.083Z,84.90
2018-03-04T02:21:20.231Z,88.20
2018-03-04T02:22:20.375Z,86.60
2018-03-04T02:23:20.524Z,89.90
2018-03-04T02:24:20.672Z,87.30
2018-03-04T02:25:20.816Z,92.80
2018-03-04T02:26:20.963Z,88.40
2018-03-04T02:27:21.108Z,93.00
2018-03-04T02:28:21.259Z,89.90
2018-03-04T02:29:21.402Z,94.30
2018-03-04T02:30:21.552Z,92.90
2018-03-04T02:31:21.696Z,87.50
2018-03-04T02:32:21.828Z,91.70
2018-03-04T02:33:21.980Z,92.20
2018-03-04T02:34:22.126Z,90.20
2018-03-04T02:35:22.272Z,92.40
2018-03-04T02:36:22.426Z,95.30
2018-03-04T02:37:22.564Z,91.10
2018-03-04T02:38:22.717Z,91.50
2018-03-04T02:39:22.860Z,96.30
2018-03-04T02:40:23.006Z,92.90
2018-03-04T02:41:23.152Z,93.40
2018-03-04T02:42:23.304Z,94.20
2018-03-04T02:43:23.450Z,90.60
2018-03-04T02:44:23.602Z,98.70
2018-03-04T02:45:23.745Z,98.10
2018-03-04T02:46:23.906Z,101.20
2018-03-04T02:47:24.042Z,94.10
2018-03-04T02:48:24.183Z,95.50
2018-03-04T02:49:24.336Z,96.10
2018-03-04T02:50:24.477Z,96.60
2018-03-04T02:51:24.625Z,92.70
2018-03-04T02:52:24.780Z,93.30
2018-03-04T02:53:24.920Z,95.80
2018-03-04T02:54:25.072Z,92.50
2018-03-04T02:55:25.214Z,97.60
2018-03-04T02:56:25.358Z,97.80
2018-03-04T02:57:25.516Z,90.20
2018-03-04T02:58:25.661Z,97.50
2018-03-04T02:59:25.817Z,95.20
2018-03-04T03:00:25.967Z,92.80
2018-03-04T03:01:26.106Z,96.80
2018-03-04T03:02:26.251Z,96.10
2018-03-04T03:03:26.402Z,94.60
2018-03-04T03:04:26.544Z,90.30
2018-03-04T03:05:26.700Z,91.20
2018-03-04T03:06:26.836Z,96.80
2018-03-04T03:07:26.984Z,97.60
2018-03-04T03:08:27.133Z,91.00
2018-03-04T03:09:27.272Z,94.80
2018-03-04T03:10:27.416Z,93.10
2018-03-04T03:11:27.565Z,91.30
2018-03-04T03:12:27.714Z,95.00
2018-03-04T03:13:27.856Z,96.30
2018-03-04T03:14:28.004Z,101.80
2018-03-04T03:15:28.150Z,97.10
2018-03-04T03:16:28.293Z,93.90
2018-03-04T03:17:28.445Z,95.30
2018-03-04T03:18:28.592Z,98.10
2018-03-04T03:19:28.735Z,95.40
2018-03-04T03:20:28.889Z,94.50
2018-03-04T03:21:29.035Z,93.10
2018-03-04T03:22:29.186Z,93.50
2018-03-04T03:23:29.326Z,91.60
2018-03-04T03:24:29.480Z,89.10
2018-03-04T03:25:29.866Z,94.60
2018-03-04T03:26:29.771Z,90.50
2018-03-04T03:27:29.919Z,90.10
2018-03-04T03:28:30.067Z,90.90
2018-03-04T03:29:30.214Z,91.70
2018-03-04T03:30:30.378Z,94.30
2018-03-04T03:31:30.505Z,96.00
2018-03-04T03:32:30.654Z,97.70
2018-03-04T03:33:30.800Z,95.60
2018-03-04T03:34:30.947Z,94.80
2018-03-04T03:35:31.091Z,96.70
2018-03-04T03:36:31.239Z,92.60
2018-03-04T03:37:31.389Z,101.40
2018-03-04T03:38:31.538Z,94.90
2018-03-04T03:39:31.685Z,92.20
2018-03-04T03:40:31.832Z,95.20
2018-03-04T03:41:31.979Z,90.80
2018-03-04T03:42:32.130Z,93.10
2018-03-04T03:43:32.277Z,93.30
2018-03-04T03:44:32.426Z,95.40
2018-03-04T03:45:32.568Z,93.30
2018-03-04T03:46:32.716Z,97.80
2018-03-04T03:47:32.864Z,99.30
2018-03-04T03:48:33.013Z,93.80
2018-03-04T03:49:33.160Z,95.80
2018-03-04T03:50:33.309Z,97.90
2018-03-04T03:51:33.453Z,95.00
2018-03-04T03:52:33.607Z,96.10
2018-03-04T03:53:33.750Z,95.70
2018-03-04T03:54:33.914Z,99.00
2018-03-04T03:55:34.052Z,101.80
2018-03-04T03:56:34.197Z,99.20
2018-03-04T03:57:34.342Z,94.00
2018-03-04T03:58:34.493Z,96.30
2018-03-04T03:59:34.643Z,93.50
2018-03-04T04:00:34.789Z,97.10
2018-03-04T04:01:34.939Z,96.40
2018-03-04T04:02:35.085Z,99.00
2018-03-04T04:03:35.237Z,97.90
2018-03-04T04:04:35.379Z,98.00
2018-03-04T04:05:35.524Z,100.30
2018-03-04T04:06:35.677Z,101.20
2018-03-04T04:07:35.822Z,96.50
2018-03-04T04:08:35.977Z,99.80
2018-03-04T04:09:36.122Z,97.90
2018-03-04T04:10:36.266Z,93.10
2018-03-04T04:11:36.412Z,96.10
2018-03-04T04:12:36.562Z,98.50
2018-03-04T04:13:36.706Z,98.30
2018-03-04T04:14:36.850Z,97.40
2018-03-04T04:15:36.993Z,101.40
2018-03-04T04:16:37.142Z,96.20
2018-03-04T04:17:37.288Z,98.00
2018-03-04T04:18:37.425Z,96.00
2018-03-04T04:19:37.583Z,99.80
2018-03-04T04:20:37.732Z,96.70
2018-03-04T04:21:37.878Z,99.50
2018-03-04T04:22:38.025Z,98.00
2018-03-04T04:23:38.170Z,98.40
2018-03-04T04:24:38.328Z,94.40
2018-03-04T04:25:38.478Z,96.80
2018-03-04T04:26:38.615Z,97.20
2018-03-04T04:27:38.769Z,98.10
2018-03-04T04:28:38.912Z,95.10
2018-03-04T04:29:39.057Z,102.20
2018-03-04T04:30:39.207Z,97.10
2018-03-04T04:31:39.346Z,99.20
2018-03-04T04:32:39.489Z,100.80
2018-03-04T04:33:39.638Z,101.10
2018-03-04T04:34:39.789Z,100.00
2018-03-04T04:35:39.937Z,97.40
2018-03-04T04:36:40.084Z,97.70
2018-03-04T04:37:40.231Z,101.70
2018-03-04T04:38:40.380Z,98.30
2018-03-04T04:39:40.579Z,98.40
2018-03-04T04:40:40.668Z,101.50
2018-03-04T04:41:40.820Z,99.10
2018-03-04T04:43:41.105Z,101.10
2018-03-04T04:44:41.249Z,99.80
2018-03-04T04:45:41.398Z,101.00
2018-03-04T04:46:41.544Z,97.30
2018-03-04T04:47:41.692Z,98.10
2018-03-04T04:48:41.842Z,100.20
2018-03-04T04:49:41.990Z,106.40
2018-03-04T04:50:42.137Z,100.80
2018-03-04T04:51:42.281Z,102.20
2018-03-04T04:52:42.433Z,106.10
2018-03-04T04:53:42.576Z,105.20
2018-03-04T04:54:42.724Z,97.10
2018-03-04T04:55:42.880Z,104.60
2018-03-04T04:56:43.024Z,99.40
2018-03-04T04:57:43.170Z,98.30
2018-03-04T04:58:43.321Z,101.60
2018-03-04T04:59:43.467Z,105.60
2018-03-04T05:00:43.615Z,104.10
2018-03-04T05:01:43.768Z,104.30
2018-03-04T05:02:43.910Z,101.20
2018-03-04T05:03:44.060Z,105.10
2018-03-04T05:04:44.209Z,101.40
2018-03-04T05:05:44.353Z,99.00
2018-03-04T05:06:44.501Z,101.80
2018-03-04T05:07:44.649Z,104.60
2018-03-04T05:08:44.798Z,101.60
2018-03-04T05:09:44.942Z,100.30
2018-03-04T05:10:45.093Z,98.00
2018-03-04T05:11:45.239Z,95.10
2018-03-04T05:12:45.388Z,102.00
2018-03-04T05:13:45.531Z,100.10
2018-03-04T05:14:45.685Z,98.00
2018-03-04T05:15:45.833Z,94.40
2018-03-04T05:16:45.978Z,100.20
2018-03-04T05:17:46.123Z,98.90
2018-03-04T05:18:46.270Z,98.00
2018-03-04T05:19:46.421Z,102.00
2018-03-04T05:20:46.569Z,95.10
2018-03-04T05:21:46.718Z,99.70
2018-03-04T05:22:46.863Z,99.90
2018-03-04T05:23:47.006Z,94.50
2018-03-04T05:24:47.165Z,96.00
2018-03-04T05:25:47.313Z,94.00
2018-03-04T05:26:47.462Z,98.30
2018-03-04T05:27:47.611Z,97.40
2018-03-04T05:28:47.760Z,94.40
2018-03-04T05:29:47.902Z,98.20
2018-03-04T05:30:48.053Z,92.60
2018-03-04T05:31:48.207Z,92.60
2018-03-04T05:32:48.350Z,94.40
2018-03-04T05:33:48.493Z,94.70
2018-03-04T05:34:48.652Z,91.70
2018-03-04T05:35:48.795Z,97.30
2018-03-04T05:36:48.943Z,97.40
2018-03-04T05:37:49.091Z,92.40
2018-03-04T05:38:49.239Z,98.40
2018-03-04T05:39:49.387Z,98.10
2018-03-04T05:40:49.536Z,91.90
2018-03-04T05:41:49.683Z,90.30
2018-03-04T05:42:49.832Z,96.60
2018-03-04T05:43:49.976Z,96.50
2018-03-04T05:44:50.126Z,92.00
2018-03-04T05:45:50.270Z,94.50
2018-03-04T05:46:50.421Z,87.40
2018-03-04T05:47:50.578Z,90.90
2018-03-04T05:48:50.715Z,92.80
2018-03-04T05:49:50.869Z,92.30
2018-03-04T05:50:51.014Z,89.70
2018-03-04T05:51:51.157Z,93.00
2018-03-04T05:52:51.306Z,94.10
2018-03-04T05:53:51.454Z,93.60
2018-03-04T05:54:51.603Z,89.70
2018-03-04T05:55:51.753Z,93.30
2018-03-04T05:56:51.899Z,88.90
2018-03-04T05:57:52.047Z,99.90
2018-03-04T05:58:52.202Z,93.90
2018-03-04T05:59:52.343Z,97.70
2018-03-04T06:00:52.492Z,96.30
2018-03-04T06:01:52.885Z,102.50
2018-03-04T06:02:52.768Z,94.90
2018-03-04T06:03:52.930Z,104.10
2018-03-04T06:04:53.085Z,97.80
2018-03-04T06:05:53.216Z,94.80
2018-03-04T06:06:53.344Z,102.20
2018-03-04T06:07:53.513Z,98.70
2018-03-04T06:08:53.653Z,94.80
2018-03-04T06:09:53.807Z,98.40
2018-03-04T06:10:53.944Z,100.40
2018-03-04T06:11:54.092Z,93.40
2018-03-04T06:12:54.243Z,94.00
2018-03-04T06:13:54.387Z,87.50
2018-03-04T06:14:54.554Z,94.10
2018-03-04T06:15:54.689Z,94.70
2018-03-04T06:16:54.838Z,92.70
2018-03-04T06:17:54.985Z,97.90
2018-03-04T06:18:55.138Z,91.40
2018-03-04T06:19:55.278Z,92.90
2018-03-04T06:20:55.428Z,90.60
2018-03-04T06:21:55.575Z,95.70
2018-03-04T06:22:55.719Z,93.20
2018-03-04T06:23:55.866Z,97.60
2018-03-04T06:24:56.015Z,95.70
2018-03-04T06:25:56.164Z,100.50
2018-03-04T06:26:56.310Z,95.40
2018-03-04T06:27:56.454Z,94.40
2018-03-04T06:28:56.607Z,91.50
2018-03-04T06:29:56.754Z,92.80
2018-03-04T06:30:56.900Z,87.70
2018-03-04T06:31:57.052Z,92.60
2018-03-04T06:32:57.196Z,91.40
2018-03-04T06:33:57.345Z,95.30
2018-03-04T06:34:57.498Z,89.30
2018-03-04T06:35:57.640Z,91.90
2018-03-04T06:36:57.792Z,95.90
2018-03-04T06:37:57.937Z,88.00
2018-03-04T06:38:58.085Z,92.50
2018-03-04T06:39:58.235Z,91.70
2018-03-04T06:40:58.377Z,98.70
2018-03-04T06:41:58.769Z,93.60
2018-03-04T06:42:58.676Z,93.20
2018-03-04T06:43:58.820Z,92.30
2018-03-04T06:44:58.972Z,98.30
2018-03-04T06:45:59.122Z,92.90
2018-03-04T06:46:59.268Z,100.60
2018-03-04T06:47:59.414Z,99.10
2018-03-04T06:48:59.563Z,94.60
2018-03-04T06:49:59.761Z,98.60
2018-03-04T06:50:59.860Z,100.80
2018-03-04T06:52:00.009Z,98.50
2018-03-04T06:53:00.153Z,96.30
2018-03-04T06:54:00.304Z,99.10
2018-03-04T06:55:00.440Z,95.30
2018-03-04T06:56:00.597Z,93.90
2018-03-04T06:58:00.882Z,99.70
2018-03-04T06:59:01.024Z,101.70
2018-03-04T07:00:01.184Z,97.30
2018-03-04T07:01:01.326Z,95.10
2018-03-04T07:02:01.473Z,93.00
2018-03-04T07:03:01.621Z,96.00
2018-03-04T07:04:01.767Z,99.00
2018-03-04T07:05:01.921Z,100.80
2018-03-04T07:06:02.069Z,94.60
2018-03-04T07:07:02.212Z,92.30
2018-03-04T07:08:02.359Z,89.90
2018-03-04T07:10:02.658Z,90.40
2018-03-04T07:11:02.810Z,92.70
2018-03-04T07:12:02.955Z,95.80
2018-03-04T07:13:03.102Z,92.60
2018-03-04T07:14:03.256Z,89.70
2018-03-04T07:15:03.402Z,90.90
2018-03-04T07:16:03.553Z,95.00
2018-03-04T07:17:03.700Z,93.00
2018-03-04T07:18:03.845Z,90.80
2018-03-04T07:19:03.989Z,91.40
2018-03-04T07:20:04.138Z,90.80
2018-03-04T07:21:04.284Z,94.70
2018-03-04T07:22:04.432Z,91.00
2018-03-04T07:23:04.585Z,93.60
2018-03-04T07:24:04.733Z,94.30
2018-03-04T07:25:04.879Z,97.10
2018-03-04T07:26:05.032Z,91.30
2018-03-04T07:27:05.181Z,94.60
2018-03-04T07:28:05.329Z,89.90
2018-03-04T07:29:05.476Z,92.80
2018-03-04T07:30:05.626Z,91.60
2018-03-04T07:31:05.779Z,90.60
2018-03-04T07:32:05.920Z,91.30
2018-03-04T07:33:06.077Z,94.10
2018-03-04T07:34:06.210Z,91.90
2018-03-04T07:35:06.442Z,99.30
2018-03-04T07:36:06.533Z,91.80
2018-03-04T07:37:06.685Z,94.80
2018-03-04T07:38:06.833Z,92.30
2018-03-04T07:39:06.986Z,96.70
2018-03-04T07:40:07.134Z,98.50
2018-03-04T07:41:07.279Z,93.90
2018-03-04T07:42:07.438Z,90.60
2018-03-04T07:43:07.578Z,92.70
2018-03-04T07:44:07.725Z,90.80
2018-03-04T07:45:07.875Z,90.80
2018-03-04T07:46:08.020Z,89.10
2018-03-04T07:47:08.168Z,92.10
2018-03-04T07:48:08.318Z,98.80
2018-03-04T07:49:08.717Z,95.90
2018-03-04T07:50:08.615Z,95.50
2018-03-04T07:51:08.767Z,92.70
2018-03-04T07:52:08.910Z,88.40
2018-03-04T07:53:09.058Z,91.70
2018-03-04T07:54:09.209Z,91.50
2018-03-04T07:55:09.364Z,87.10
2018-03-04T07:56:09.507Z,88.40
2018-03-04T07:57:09.654Z,87.60
2018-03-04T07:58:09.807Z,92.40
2018-03-04T07:59:09.955Z,91.00
2018-03-04T08:00:10.103Z,89.90
2018-03-04T08:01:10.251Z,89.90
2018-03-04T08:02:10.397Z,88.00
2018-03-04T08:03:10.543Z,91.30
2018-03-04T08:04:10.703Z,89.10
2018-03-04T08:05:10.845Z,90.60
2018-03-04T08:06:10.994Z,92.20
2018-03-04T08:07:11.141Z,85.00
2018-03-04T08:08:11.292Z,91.30
2018-03-04T08:09:11.452Z,93.20
2018-03-04T08:10:11.588Z,92.40
2018-03-04T08:11:11.740Z,87.40
2018-03-04T08:12:11.887Z,88.40
2018-03-04T08:13:12.035Z,90.80
2018-03-04T08:14:12.204Z,88.70
2018-03-04T08:15:12.348Z,88.00
2018-03-04T08:16:12.481Z,89.90
2018-03-04T08:17:12.630Z,87.70
2018-03-04T08:18:12.787Z,90.80
2018-03-04T08:19:12.929Z,89.40
2018-03-04T08:20:13.076Z,84.90
2018-03-04T08:21:13.226Z,85.00
2018-03-04T08:22:13.374Z,85.60
2018-03-04T08:23:13.535Z,84.30
2018-03-04T08:24:13.672Z,85.30
2018-03-04T08:25:13.818Z,87.50
2018-03-04T08:26:13.970Z,82.70
2018-03-04T08:27:14.117Z,80.70
2018-03-04T08:28:14.273Z,88.30
2018-03-04T08:29:14.426Z,85.30
2018-03-04T08:30:14.572Z,83.60
2018-03-04T08:31:14.716Z,86.50
2018-03-04T08:32:14.865Z,84.20
2018-03-04T08:33:15.020Z,89.40
2018-03-04T08:34:15.168Z,86.70
2018-03-04T08:35:15.314Z,85.00
2018-03-04T08:36:15.464Z,84.20
2018-03-04T08:37:15.619Z,88.20
2018-03-04T08:38:15.760Z,84.50
2018-03-04T08:39:15.911Z,85.60
2018-03-04T08:40:16.061Z,84.50
2018-03-04T08:41:16.212Z,89.80
2018-03-04T08:42:16.356Z,87.40
2018-03-04T08:43:16.523Z,86.00
2018-03-04T08:45:16.813Z,91.60
2018-03-04T08:46:16.963Z,85.00
2018-03-04T08:47:17.111Z,89.80
2018-03-04T08:48:17.269Z,89.40
2018-03-04T08:49:17.411Z,86.90
2018-03-04T08:50:17.558Z,89.30
2018-03-04T08:51:17.716Z,89.90
2018-03-04T08:52:17.859Z,89.20
2018-03-04T08:53:18.015Z,88.10
2018-03-04T08:54:18.161Z,88.40
2018-03-04T08:55:18.323Z,85.00
2018-03-04T08:56:18.469Z,86.20
2018-03-04T08:57:18.636Z,89.50
2018-03-04T08:58:18.780Z,87.90
2018-03-04T08:59:18.918Z,86.90
2018-03-04T09:00:19.078Z,90.60
2018-03-04T09:01:19.232Z,90.50
2018-03-04T09:02:19.419Z,88.90
2018-03-04T09:03:19.511Z,86.50
2018-03-04T09:04:19.656Z,82.70
2018-03-04T09:05:19.810Z,86.30
2018-03-04T09:06:19.958Z,84.20
2018-03-04T09:07:20.109Z,86.90
2018-03-04T09:08:20.256Z,82.70
2018-03-04T09:09:20.435Z,90.40
2018-03-04T09:10:20.582Z,89.50
2018-03-04T09:11:20.733Z,92.10
2018-03-04T09:12:20.880Z,84.90
2018-03-04T09:13:21.035Z,84.30
2018-03-04T09:14:21.184Z,87.80
2018-03-04T09:15:21.338Z,88.00
2018-03-04T09:16:21.493Z,89.80
2018-03-04T09:17:21.634Z,91.20
2018-03-04T09:18:21.785Z,83.30
2018-03-04T09:19:21.937Z,84.70
2018-03-04T09:20:22.091Z,85.50
2018-03-04T09:21:22.236Z,88.80
2018-03-04T09:22:22.386Z,86.00
2018-03-04T09:23:22.537Z,82.60
2018-03-04T09:24:22.691Z,79.00
2018-03-04T09:25:22.836Z,77.70
2018-03-04T09:26:22.987Z,81.10
2018-03-04T09:27:23.147Z,80.30
2018-03-04T09:28:23.291Z,82.70
2018-03-04T09:29:23.440Z,79.90
2018-03-04T09:30:23.604Z,77.30
2018-03-04T09:31:23.737Z,79.00
2018-03-04T09:32:23.886Z,80.20
2018-03-04T09:33:24.040Z,82.90
2018-03-04T09:34:24.191Z,81.00
2018-03-04T09:35:24.343Z,80.80
2018-03-04T09:36:24.491Z,83.00
2018-03-04T09:37:24.643Z,85.60
2018-03-04T09:38:24.811Z,76.70
2018-03-04T09:39:24.974Z,79.60
2018-03-04T09:40:25.105Z,78.50
2018-03-04T09:41:25.247Z,79.30
2018-03-04T09:42:25.415Z,78.80
2018-03-04T09:43:25.544Z,80.10
2018-03-04T09:44:25.701Z,74.50
2018-03-04T09:45:25.870Z,83.00
2018-03-04T09:46:26.000Z,76.10
2018-03-04T09:47:26.160Z,79.00
2018-03-04T09:48:26.308Z,82.50
2018-03-04T09:49:26.459Z,79.30
2018-03-04T09:50:26.609Z,80.70
2018-03-04T09:51:26.762Z,75.30
2018-03-04T09:52:26.917Z,74.40
2018-03-04T09:53:27.060Z,72.80
2018-03-04T09:54:27.219Z,78.40
2018-03-04T09:55:27.381Z,74.70
2018-03-04T09:56:27.527Z,74.70
2018-03-04T09:57:27.668Z,76.50
2018-03-04T09:58:27.816Z,74.90
2018-03-04T09:59:27.969Z,75.70
2018-03-04T10:00:28.124Z,73.00
2018-03-04T10:01:28.281Z,75.20
2018-03-04T10:02:28.431Z,78.30
2018-03-04T10:03:28.579Z,76.00
2018-03-04T10:04:28.737Z,72.90
2018-03-04T10:05:28.890Z,79.30
2018-03-04T10:06:29.041Z,75.00
2018-03-04T10:07:29.195Z,81.60
2018-03-04T10:08:29.337Z,75.00
2018-03-04T10:09:29.486Z,74.40
2018-03-04T10:10:29.651Z,79.50
2018-03-04T10:11:29.799Z,75.80
2018-03-04T10:12:29.949Z,76.40
2018-03-04T10:13:30.108Z,76.10
2018-03-04T10:14:30.250Z,74.80
2018-03-04T10:15:30.403Z,74.30
2018-03-04T10:16:30.558Z,71.40
2018-03-04T10:17:30.707Z,72.80
2018-03-04T10:18:30.856Z,72.10
2018-03-04T10:19:31.009Z,74.70
2018-03-04T10:20:31.160Z,67.30
2018-03-04T10:21:31.314Z,74.30
2018-03-04T10:22:31.466Z,77.10
2018-03-04T10:23:31.616Z,71.70
2018-03-04T10:24:31.781Z,69.60
2018-03-04T10:25:31.932Z,70.40
2018-03-04T10:26:32.077Z,72.80
2018-03-04T10:27:32.233Z,67.00
2018-03-04T10:28:32.385Z,69.00
2018-03-04T10:29:32.538Z,69.00
2018-03-04T10:30:32.689Z,68.80
2018-03-04T10:31:32.864Z,70.20
2018-03-04T10:32:32.995Z,73.50
2018-03-04T10:33:33.149Z,71.10
2018-03-04T10:34:33.301Z,71.00
2018-03-04T10:35:33.452Z,75.80
2018-03-04T10:36:33.603Z,71.90
2018-03-04T10:37:33.773Z,73.30
2018-03-04T10:38:33.910Z,76.00
2018-03-04T10:39:34.067Z,71.50
2018-03-04T10:40:34.222Z,73.80
2018-03-04T10:41:34.366Z,76.80
2018-03-04T10:42:34.523Z,75.50
2018-03-04T10:43:34.671Z,74.00
2018-03-04T10:45:34.978Z,73.00
2018-03-04T10:46:35.122Z,77.60
2018-03-04T10:47:35.275Z,76.20
2018-03-04T10:48:35.426Z,70.70
2018-03-04T10:49:35.578Z,72.10
2018-03-04T10:50:35.731Z,73.30
2018-03-04T10:51:35.883Z,75.40
2018-03-04T10:52:36.033Z,72.90
2018-03-04T10:53:36.189Z,72.20
2018-03-04T10:54:36.354Z,71.30
2018-03-04T10:55:36.489Z,72.80
2018-03-04T10:56:36.646Z,73.20
2018-03-04T10:57:36.799Z,74.40
2018-03-04T10:58:36.953Z,71.50
2018-03-04T10:59:37.107Z,74.40
2018-03-04T11:00:37.255Z,73.50
2018-03-04T11:01:37.407Z,72.00
2018-03-04T11:02:37.560Z,71.10
2018-03-04T11:03:37.716Z,73.70
2018-03-04T11:04:37.866Z,71.50
2018-03-04T11:05:38.022Z,77.10
2018-03-04T11:06:38.174Z,75.60
2018-03-04T11:07:38.325Z,73.70
2018-03-04T11:08:38.484Z,76.80
2018-03-04T11:09:38.648Z,73.80
2018-03-04T11:10:38.782Z,77.60
2018-03-04T11:11:38.935Z,78.30
2018-03-04T11:12:39.097Z,71.60
2018-03-04T11:13:39.239Z,75.00
2018-03-04T11:14:39.396Z,69.00
2018-03-04T11:15:39.559Z,74.90
2018-03-04T11:16:39.708Z,71.90
2018-03-04T11:17:39.852Z,71.40
2018-03-04T11:18:40.004Z,70.70
2018-03-04T11:19:40.157Z,70.10
2018-03-04T11:20:40.306Z,69.10
2018-03-04T11:21:40.465Z,68.30
2018-03-04T11:22:40.613Z,70.60
2018-03-04T11:23:40.774Z,70.20
2018-03-04T11:24:40.940Z,69.60
2018-03-04T11:25:41.071Z,69.30
2018-03-04T11:26:41.237Z,68.10
2018-03-04T11:27:41.381Z,71.60
2018-03-04T11:28:41.608Z,72.10
2018-03-04T11:29:41.728Z,73.80
2018-03-04T11:30:41.838Z,70.90
2018-03-04T11:31:41.988Z,68.00
2018-03-04T11:32:42.142Z,67.10
2018-03-04T11:33:42.295Z,66.90
2018-03-04T11:34:42.441Z,70.10
2018-03-04T11:35:42.598Z,70.00
2018-03-04T11:36:42.748Z,76.40
2018-03-04T11:37:42.909Z,70.40
2018-03-04T11:38:43.055Z,70.20
2018-03-04T11:39:43.214Z,69.80
2018-03-04T11:40:43.362Z,68.70
2018-03-04T11:41:43.521Z,67.20
2018-03-04T11:42:43.669Z,73.20
2018-03-04T11:43:43.820Z,70.70
2018-03-04T11:44:43.980Z,71.80
2018-03-04T11:45:44.135Z,73.70
2018-03-04T11:46:44.549Z,69.20
2018-03-04T11:47:44.436Z,69.90
2018-03-04T11:48:44.603Z,71.30
2018-03-04T11:49:45.000Z,67.30
2018-03-04T11:50:44.900Z,64.20
2018-03-04T11:51:45.051Z,66.10
2018-03-04T11:52:45.209Z,63.10
2018-03-04T11:53:45.361Z,64.60
2018-03-04T11:54:45.507Z,62.50
2018-03-04T11:55:45.663Z,62.20
2018-03-04T11:56:45.816Z,60.20
2018-03-04T11:57:45.966Z,63.70
2018-03-04T11:58:46.122Z,61.60
2018-03-04T11:59:46.279Z,63.40
2018-03-04T12:00:46.428Z,61.90
2018-03-04T12:01:46.579Z,63.70
2018-03-04T12:02:46.728Z,63.40
2018-03-04T12:03:46.886Z,64.20
2018-03-04T12:04:47.046Z,62.40
2018-03-04T12:05:47.200Z,61.20
2018-03-04T12:06:47.355Z,60.50
2018-03-04T12:07:47.508Z,64.30
2018-03-04T12:08:47.660Z,60.90
2018-03-04T12:09:47.818Z,61.00
2018-03-04T12:10:47.970Z,62.20
2018-03-04T12:11:48.126Z,62.00
2018-03-04T12:12:48.286Z,61.60
2018-03-04T12:13:48.441Z,63.40
2018-03-04T12:14:48.603Z,60.60
2018-03-04T12:15:48.749Z,59.60
2018-03-04T12:16:48.903Z,58.30
2018-03-04T12:17:49.062Z,57.00
2018-03-04T12:18:49.209Z,59.80
2018-03-04T12:19:49.363Z,59.30
2018-03-04T12:20:49.518Z,60.20
2018-03-04T12:21:49.673Z,60.00
2018-03-04T12:22:49.830Z,59.40
2018-03-04T12:23:49.980Z,60.20
2018-03-04T12:24:50.134Z,57.40
2018-03-04T12:25:50.287Z,58.70
2018-03-04T12:26:50.440Z,58.80
2018-03-04T12:27:50.595Z,59.40
2018-03-04T12:28:50.753Z,54.70
2018-03-04T12:29:50.919Z,57.00
2018-03-04T12:30:51.126Z,56.20
2018-03-04T12:31:51.215Z,57.60
2018-03-04T12:32:51.366Z,55.90
2018-03-04T12:33:51.519Z,56.20
2018-03-04T12:34:51.676Z,57.30
2018-03-04T12:35:51.828Z,56.70
2018-03-04T12:36:51.986Z,58.00
2018-03-04T12:37:52.150Z,57.50
2018-03-04T12:38:52.304Z,55.90
2018-03-04T12:39:52.459Z,55.40
2018-03-04T12:40:52.608Z,55.20
2018-03-04T12:41:52.767Z,56.90
2018-03-04T12:42:53.167Z,56.00
2018-03-04T12:43:53.071Z,56.60
2018-03-04T12:44:53.238Z,55.30
2018-03-04T12:45:53.383Z,55.80
2018-03-04T12:46:53.543Z,57.30
2018-03-04T12:47:53.699Z,56.10
2018-03-04T12:48:53.840Z,55.50
2018-03-04T12:49:53.997Z,55.00
2018-03-04T12:50:54.147Z,54.00
2018-03-04T12:51:54.300Z,54.30
2018-03-04T12:52:54.455Z,51.10
2018-03-04T12:53:54.616Z,50.80
2018-03-04T12:54:54.764Z,53.50
2018-03-04T12:55:54.914Z,52.00
2018-03-04T12:56:55.070Z,52.80
2018-03-04T12:57:55.225Z,54.30
2018-03-04T12:58:55.378Z,52.30
2018-03-04T12:59:55.533Z,52.30
2018-03-04T13:00:55.695Z,50.80